sensor_id;sensor_type;location;lat;lon;timestamp;P1;durP1;ratioP1;P2;durP2;ratioP2
2760;SDS011;15420;48.636;9.798;2023-03-30T11:46:27;4.47;;;2.77;;
2760;SDS011;15420;48.636;9.798;2023-03-30T11:58:35;6.10;;;3.80;;
2760;SDS011;15420;48.636;9.798;2023-03-30T12:01:25;4.50;;;3.00;;
2760;SDS011;15420;48.636;9.798;2023-03-30T12:06:59;2.70;;;2.50;;
2760;SDS011;15420;48.636;9.798;2023-03-30T12:12:34;4.30;;;2.83;;
2760;SDS011;15420;48.636;9.798;2023-03-30T12:21:24;6.33;;;2.77;;
2760;SDS011;15420;48.636;9.798;2023-03-30T12:24:25;3.67;;;1.97;;
2760;SDS011;15420;48.636;9.798;2023-03-30T12:26:55;3.40;;;2.30;;
2760;SDS011;15420;48.636;9.798;2023-03-30T12:29:48;5.80;;;2.80;;
2760;SDS011;15420;48.636;9.798;2023-03-30T12:32:22;5.60;;;2.60;;
2760;SDS011;15420;48.636;9.798;2023-03-30T12:34:50;4.33;;;2.17;;
2760;SDS011;15420;48.636;9.798;2023-03-30T12:37:18;2.90;;;2.23;;
2760;SDS011;15420;48.636;9.798;2023-03-30T12:42:27;7.77;;;2.60;;
2760;SDS011;15420;48.636;9.798;2023-03-30T12:51:27;5.73;;;3.60;;
2760;SDS011;15420;48.636;9.798;2023-03-30T12:57:07;4.70;;;3.07;;
2760;SDS011;15420;48.636;9.798;2023-03-30T13:05:48;4.83;;;3.73;;
2760;SDS011;15420;48.636;9.798;2023-03-30T13:10:49;4.50;;;3.90;;
2760;SDS011;15420;48.636;9.798;2023-03-30T13:22:50;3.63;;;3.00;;
2760;SDS011;15420;48.636;9.798;2023-03-30T13:24:59;4.20;;;2.97;;
2760;SDS011;15420;48.636;9.798;2023-03-30T13:27:45;6.27;;;3.50;;
2760;SDS011;15420;48.636;9.798;2023-03-30T13:30:39;4.77;;;3.27;;
2760;SDS011;15420;48.636;9.798;2023-03-30T13:33:31;4.57;;;3.20;;
2760;SDS011;15420;48.636;9.798;2023-03-30T13:36:23;3.90;;;2.80;;
2760;SDS011;15420;48.636;9.798;2023-03-30T13:50:27;3.53;;;2.77;;
2760;SDS011;15420;48.636;9.798;2023-03-30T13:52:59;3.10;;;2.20;;
2760;SDS011;15420;48.636;9.798;2023-03-30T13:55:44;5.50;;;2.67;;
2760;SDS011;15420;48.636;9.798;2023-03-30T14:00:45;3.13;;;2.60;;
2760;SDS011;15420;48.636;9.798;2023-03-30T14:06:30;3.10;;;2.27;;
2760;SDS011;15420;48.636;9.798;2023-03-30T14:11:35;3.27;;;2.30;;
2760;SDS011;15420;48.636;9.798;2023-03-30T14:22:35;4.97;;;2.60;;
2760;SDS011;15420;48.636;9.798;2023-03-30T14:25:31;5.30;;;2.17;;
2760;SDS011;15420;48.636;9.798;2023-03-30T14:28:14;4.70;;;2.20;;
2760;SDS011;15420;48.636;9.798;2023-03-30T14:33:36;3.30;;;2.10;;
2760;SDS011;15420;48.636;9.798;2023-03-30T14:36:12;2.50;;;1.80;;
2760;SDS011;15420;48.636;9.798;2023-03-30T14:38:58;8.10;;;2.40;;
2760;SDS011;15420;48.636;9.798;2023-03-30T14:41:27;3.43;;;2.47;;
2760;SDS011;15420;48.636;9.798;2023-03-30T14:44:09;3.50;;;2.40;;
2760;SDS011;15420;48.636;9.798;2023-03-30T14:46:42;4.57;;;2.50;;
2760;SDS011;15420;48.636;9.798;2023-03-30T14:51:59;4.47;;;2.70;;
2760;SDS011;15420;48.636;9.798;2023-03-30T14:54:36;4.07;;;3.00;;
2760;SDS011;15420;48.636;9.798;2023-03-30T14:57:16;2.47;;;1.80;;
2760;SDS011;15420;48.636;9.798;2023-03-30T14:59:52;3.50;;;1.80;;
2760;SDS011;15420;48.636;9.798;2023-03-30T15:02:55;2.37;;;1.50;;
2760;SDS011;15420;48.636;9.798;2023-03-30T15:05:44;2.13;;;1.87;;
2760;SDS011;15420;48.636;9.798;2023-03-30T15:08:25;2.77;;;1.90;;
2760;SDS011;15420;48.636;9.798;2023-03-30T15:13:58;5.23;;;1.97;;
2760;SDS011;15420;48.636;9.798;2023-03-30T15:16:39;2.80;;;1.57;;
2760;SDS011;15420;48.636;9.798;2023-03-30T15:19:09;3.47;;;1.80;;
2760;SDS011;15420;48.636;9.798;2023-03-30T15:22:09;3.10;;;1.73;;
2760;SDS011;15420;48.636;9.798;2023-03-30T15:25:05;5.93;;;2.13;;
2760;SDS011;15420;48.636;9.798;2023-03-30T15:27:39;4.70;;;1.73;;
2760;SDS011;15420;48.636;9.798;2023-03-30T15:30:39;3.87;;;1.70;;
2760;SDS011;15420;48.636;9.798;2023-03-30T15:33:34;3.00;;;2.00;;
2760;SDS011;15420;48.636;9.798;2023-03-30T15:36:17;3.30;;;2.63;;
2760;SDS011;15420;48.636;9.798;2023-03-30T15:41:22;6.60;;;2.90;;
2760;SDS011;15420;48.636;9.798;2023-03-30T15:44:11;5.03;;;3.07;;
2760;SDS011;15420;48.636;9.798;2023-03-30T15:46:56;4.33;;;2.30;;
2760;SDS011;15420;48.636;9.798;2023-03-30T15:49:44;6.17;;;2.70;;
2760;SDS011;15420;48.636;9.798;2023-03-30T15:52:23;3.23;;;1.30;;
2760;SDS011;15420;48.636;9.798;2023-03-30T15:55:18;1.83;;;1.40;;
2760;SDS011;15420;48.636;9.798;2023-03-30T15:57:51;3.27;;;1.47;;
2760;SDS011;15420;48.636;9.798;2023-03-30T16:00:30;4.53;;;2.27;;
2760;SDS011;15420;48.636;9.798;2023-03-30T16:03:09;6.00;;;2.00;;
2760;SDS011;15420;48.636;9.798;2023-03-30T16:05:46;3.40;;;1.27;;
2760;SDS011;15420;48.636;9.798;2023-03-30T16:08:14;4.63;;;2.50;;
2760;SDS011;15420;48.636;9.798;2023-03-30T16:10:53;2.40;;;1.57;;
2760;SDS011;15420;48.636;9.798;2023-03-30T16:13:24;2.33;;;1.53;;
2760;SDS011;15420;48.636;9.798;2023-03-30T16:15:52;3.07;;;1.47;;
2760;SDS011;15420;48.636;9.798;2023-03-30T16:18:28;3.00;;;1.40;;
2760;SDS011;15420;48.636;9.798;2023-03-30T16:20:54;1.57;;;1.10;;
2760;SDS011;15420;48.636;9.798;2023-03-30T16:23:21;2.40;;;1.17;;
2760;SDS011;15420;48.636;9.798;2023-03-30T16:25:47;1.67;;;1.00;;
2760;SDS011;15420;48.636;9.798;2023-03-30T16:28:18;1.40;;;1.30;;
2760;SDS011;15420;48.636;9.798;2023-03-30T16:30:45;1.17;;;1.07;;
2760;SDS011;15420;48.636;9.798;2023-03-30T16:33:22;2.50;;;1.47;;
2760;SDS011;15420;48.636;9.798;2023-03-30T16:35:49;3.37;;;0.80;;
2760;SDS011;15420;48.636;9.798;2023-03-30T16:38:21;1.70;;;1.40;;
2760;SDS011;15420;48.636;9.798;2023-03-30T16:40:54;1.33;;;1.00;;
2760;SDS011;15420;48.636;9.798;2023-03-30T16:43:31;1.73;;;1.10;;
2760;SDS011;15420;48.636;9.798;2023-03-30T16:46:04;2.00;;;1.00;;
2760;SDS011;15420;48.636;9.798;2023-03-30T16:48:30;2.50;;;1.20;;
2760;SDS011;15420;48.636;9.798;2023-03-30T16:50:56;1.73;;;1.33;;
2760;SDS011;15420;48.636;9.798;2023-03-30T16:53:25;3.80;;;1.20;;
2760;SDS011;15420;48.636;9.798;2023-03-30T16:55:55;4.23;;;2.80;;
2760;SDS011;15420;48.636;9.798;2023-03-30T16:58:30;2.30;;;1.77;;
2760;SDS011;15420;48.636;9.798;2023-03-30T17:00:57;2.60;;;1.63;;
2760;SDS011;15420;48.636;9.798;2023-03-30T17:03:29;2.50;;;1.37;;
2760;SDS011;15420;48.636;9.798;2023-03-30T17:05:59;5.40;;;3.60;;
2760;SDS011;15420;48.636;9.798;2023-03-30T17:08:26;6.70;;;4.00;;
2760;SDS011;15420;48.636;9.798;2023-03-30T17:11:23;2.20;;;1.30;;
2760;SDS011;15420;48.636;9.798;2023-03-30T17:13:49;6.40;;;3.73;;
2760;SDS011;15420;48.636;9.798;2023-03-30T17:16:15;2.63;;;2.30;;
2760;SDS011;15420;48.636;9.798;2023-03-30T17:18:50;3.40;;;2.03;;
2760;SDS011;15420;48.636;9.798;2023-03-30T17:21:16;4.63;;;2.03;;
2760;SDS011;15420;48.636;9.798;2023-03-30T17:23:49;5.10;;;3.33;;
2760;SDS011;15420;48.636;9.798;2023-03-30T17:26:16;3.00;;;2.07;;
2760;SDS011;15420;48.636;9.798;2023-03-30T17:28:47;6.43;;;3.13;;
2760;SDS011;15420;48.636;9.798;2023-03-30T17:31:15;3.90;;;2.40;;
2760;SDS011;15420;48.636;9.798;2023-03-30T17:33:51;1.87;;;1.40;;
2760;SDS011;15420;48.636;9.798;2023-03-30T17:36:23;5.07;;;2.20;;
2760;SDS011;15420;48.636;9.798;2023-03-30T17:41:49;13.37;;;6.67;;
2760;SDS011;15420;48.636;9.798;2023-03-30T17:44:15;14.50;;;8.43;;
2760;SDS011;15420;48.636;9.798;2023-03-30T17:46:44;12.17;;;7.60;;
2760;SDS011;15420;48.636;9.798;2023-03-30T17:49:17;19.50;;;10.57;;
2760;SDS011;15420;48.636;9.798;2023-03-30T17:51:45;13.97;;;8.03;;
2760;SDS011;15420;48.636;9.798;2023-03-30T17:54:11;8.50;;;5.60;;
2760;SDS011;15420;48.636;9.798;2023-03-30T17:56:48;7.43;;;5.20;;
2760;SDS011;15420;48.636;9.798;2023-03-30T17:59:16;7.47;;;4.70;;
2760;SDS011;15420;48.636;9.798;2023-03-30T18:02:10;7.97;;;5.80;;
2760;SDS011;15420;48.636;9.798;2023-03-30T18:04:37;43.17;;;29.43;;
2760;SDS011;15420;48.636;9.798;2023-03-30T18:07:03;25.47;;;17.50;;
2760;SDS011;15420;48.636;9.798;2023-03-30T18:09:34;16.23;;;11.83;;
2760;SDS011;15420;48.636;9.798;2023-03-30T18:12:01;9.03;;;8.03;;
2760;SDS011;15420;48.636;9.798;2023-03-30T18:14:27;6.20;;;4.30;;
2760;SDS011;15420;48.636;9.798;2023-03-30T18:17:04;4.07;;;3.60;;
2760;SDS011;15420;48.636;9.798;2023-03-30T18:19:40;4.33;;;3.93;;
2760;SDS011;15420;48.636;9.798;2023-03-30T18:22:38;7.43;;;5.40;;
2760;SDS011;15420;48.636;9.798;2023-03-30T19:07:01;8.43;;;4.63;;
2760;SDS011;15420;48.636;9.798;2023-03-30T19:09:32;8.73;;;7.10;;
2760;SDS011;15420;48.636;9.798;2023-03-30T19:11:58;11.57;;;9.40;;
2760;SDS011;15420;48.636;9.798;2023-03-30T19:14:28;13.20;;;8.77;;
2760;SDS011;15420;48.636;9.798;2023-03-30T19:16:56;11.40;;;7.90;;
2760;SDS011;15420;48.636;9.798;2023-03-30T19:19:28;8.57;;;5.70;;
2760;SDS011;15420;48.636;9.798;2023-03-30T19:21:55;8.83;;;5.53;;
2760;SDS011;15420;48.636;9.798;2023-03-30T19:24:24;8.23;;;5.30;;
2760;SDS011;15420;48.636;9.798;2023-03-30T19:26:52;6.97;;;4.70;;
2760;SDS011;15420;48.636;9.798;2023-03-30T19:29:43;7.00;;;4.60;;
2760;SDS011;15420;48.636;9.798;2023-03-30T19:32:13;7.40;;;4.30;;
2760;SDS011;15420;48.636;9.798;2023-03-30T19:34:49;5.43;;;3.30;;
2760;SDS011;15420;48.636;9.798;2023-03-30T19:37:20;3.20;;;2.47;;
2760;SDS011;15420;48.636;9.798;2023-03-30T19:39:52;3.10;;;2.53;;
2760;SDS011;15420;48.636;9.798;2023-03-30T19:42:31;2.27;;;1.77;;
2760;SDS011;15420;48.636;9.798;2023-03-30T19:44:58;3.10;;;2.13;;
